Home > Products > Valid Products > TAF

000
FTUS43 KTOP 202300
TAFTOP
TAF
KTOP 202320Z 2100/2124 01004KT P6SM SKC
     FM211000 00000KT 2SM BR SKC
     FM211400 11003KT P6SM SKC=



000
FTUS43 KTOP 201700
TAFTOP
TAF
KTOP 201720Z 2018/2118 01006KT P6SM SKC
     FM211000 00000KT 3SM BR SKC
     FM211400 11003KT P6SM SKC=



000
FTUS43 KTOP 201200 AAA
TAFTOP
TAF AMD
KTOP 201208Z 2012/2112 00000KT 3SM BR SKC
      TEMPO 2012/2013 1/4SM FG BKN002
     FM201400 01006KT P6SM SKC=



000
FTUS43 KTOP 201100
TAFTOP
TAF
KTOP 201120Z 2012/2112 00000KT 3SM BR SKC
      TEMPO 2012/2013 1/2SM FG BKN002
     FM201400 01006KT P6SM SKC=



000
FTUS43 KTOP 200800 AAA
TAFTOP
TAF AMD
KTOP 200851Z 2009/2106 00000KT 3SM BR SKC
      TEMPO 2009/2013 1/2SM FG BKN002
     FM201400 01006KT P6SM SKC=



000
FTUS43 KTOP 200500
TAFTOP
TAF
KTOP 200520Z 2006/2106 25004KT P6SM FEW070
     FM201500 01006KT P6SM SKC=



000
FTUS43 KTOP 192300
TAFTOP
TAF
KTOP 192327Z 2000/2024 20004KT P6SM SCT070
     FM201400 36006KT P6SM SKC=



000
FTUS43 KTOP 192300
TAFTOP
TAF
KTOP 192327Z 2000/2024 20004KT P6SM SCT070
     FM201400 36006KT P6SM SKC=



000
FTUS43 KTOP 191700
TAFTOP
TAF
KTOP 191720Z 1918/2018 19013KT P6SM FEW150
     FM192300 19004KT P6SM FEW090=



000
FTUS43 KTOP 191100
TAFTOP
TAF
KTOP 191132Z 1912/2012 18008KT P6SM FEW080 BKN150=



000
FTUS43 KTOP 190800 AAB
TAFTOP
TAF AMD
KTOP 190852Z 1909/2006 12003KT P6SM SCT200
     FM191400 19008KT P6SM FEW060 SCT150=



000
FTUS43 KTOP 190600 AAA
TAFTOP
TAF AMD
KTOP 190638Z 1907/2006 00000KT 1/2SM FG BKN002
      TEMPO 1907/1909 3SM BR FEW002
     FM191000 13003KT P6SM MIFG FEW150
     FM191400 19008KT P6SM FEW060 SCT150=



000
FTUS43 KTOP 190600 AAC
TAFTOP
TAF AMD
KTOP 190612Z 1906/2006 00000KT 3SM BR SKC
      TEMPO 1906/1908 1/2SM FG
     FM191000 13003KT P6SM MIFG FEW150
     FM191400 19008KT P6SM FEW060 SCT150=



000
FTUS43 KTOP 190500 AAB
TAFTOP
TAF AMD
KTOP 190553Z 1906/2006 15003KT P6SM MIFG SKC
      TEMPO 1906/1908 3SM BR
     FM191400 19008KT P6SM FEW060 SCT150=



000
FTUS43 KTOP 190500 AAA
TAFTOP
TAF AMD
KTOP 190536Z 1906/2006 15003KT P6SM MIFG SKC
     FM191400 19008KT P6SM FEW060 SCT150=



000
FTUS43 KTOP 190500
TAFTOP
TAF
KTOP 190520Z 1906/2006 15003KT P6SM SKC
     FM191500 19008KT P6SM FEW060 SCT150=



000
FTUS43 KTOP 182300
TAFTOP
TAF
KTOP 182320Z 1900/1924 10003KT P6SM SKC
     FM191300 17008KT P6SM SCT150=



000
FTUS43 KTOP 181700
TAFTOP
TAF
KTOP 181725Z 1818/1918 03005KT P6SM FEW030
     FM182300 10004KT P6SM SKC
     FM191400 17006KT P6SM BKN250=



000
FTUS43 KTOP 181100
TAFTOP
TAF
KTOP 181132Z 1812/1912 01005KT P6SM SKC
     FM182100 10004KT P6SM SKC=



000
FTUS43 KTOP 181100
TAFTOP
TAF
KTOP 181132Z 1812/1912 01005KT P6SM SKC
     FM182100 10004KT P6SM SKC=



000
FTUS43 KTOP 180500
TAFTOP
TAF
KTOP 180520Z 1806/1906 36005KT P6SM SKC
     FM182200 09004KT P6SM SKC=



    US Dept of Commerce
    National Oceanic and Atmospheric Administration
    National Weather Service
    1325 East West Highway
    Silver Spring, MD 20910
    Page Author: NWS Internet Services Team
Disclaimer
Information Quality
Credits
Glossary
Privacy Policy
Freedom of Information Act (FOIA)
About Us
Career Opportunities